createdAt,value
2022-09-02T00:00:08.505Z,1.50
2022-09-02T00:02:35.687Z,1.67
2022-09-02T00:05:06.609Z,1.60
2022-09-02T00:07:33.549Z,1.70
2022-09-02T00:10:00.573Z,1.27
2022-09-02T00:12:30.075Z,1.70
2022-09-02T00:14:57.105Z,1.60
2022-09-02T00:17:26.356Z,1.30
2022-09-02T00:19:56.270Z,1.60
2022-09-02T00:22:23.892Z,1.60
2022-09-02T00:24:50.921Z,1.30
2022-09-02T00:27:18.347Z,1.60
2022-09-02T00:29:48.489Z,1.97
2022-09-02T00:32:15.428Z,1.30
2022-09-02T00:34:42.336Z,1.60
2022-09-02T00:37:13.256Z,1.20
2022-09-02T00:39:43.747Z,1.40
2022-09-02T00:42:13.755Z,1.30
2022-09-02T00:44:43.901Z,1.80
2022-09-02T00:47:14.979Z,1.60
2022-09-02T00:49:54.631Z,1.67
2022-09-02T00:52:32.331Z,1.10
2022-09-02T00:55:08.172Z,1.40
2022-09-02T00:57:42.432Z,1.50
2022-09-02T01:00:19.161Z,1.30
2022-09-02T01:02:56.517Z,1.70
2022-09-02T01:05:26.865Z,1.27
2022-09-02T01:07:55.315Z,1.83
2022-09-02T01:10:30.512Z,2.20
2022-09-02T01:13:11.875Z,1.90
2022-09-02T01:15:44.543Z,1.70
2022-09-02T01:18:21.843Z,1.80
2022-09-02T01:20:48.722Z,1.90
2022-09-02T01:23:17.898Z,1.87
2022-09-02T01:25:46.420Z,2.13
2022-09-02T01:28:17.347Z,1.90
2022-09-02T01:30:53.806Z,1.80
2022-09-02T01:33:25.193Z,1.70
2022-09-02T01:35:53.241Z,1.50
2022-09-02T01:38:22.137Z,1.70
2022-09-02T01:40:49.305Z,1.67
2022-09-02T01:43:22.172Z,1.50
2022-09-02T01:45:53.277Z,1.30
2022-09-02T01:48:23.769Z,1.57
2022-09-02T01:50:56.499Z,1.40
2022-09-02T01:53:26.539Z,1.50
2022-09-02T01:55:56.174Z,1.40
2022-09-02T01:58:23.468Z,1.40
2022-09-02T02:00:51.050Z,1.83
2022-09-02T02:03:18.272Z,1.60
2022-09-02T02:05:45.369Z,1.63
2022-09-02T02:08:14.728Z,1.67
2022-09-02T02:10:43.196Z,1.60
2022-09-02T02:13:10.969Z,1.47
2022-09-02T02:15:48.458Z,1.33
2022-09-02T02:18:15.515Z,1.90
2022-09-02T02:20:44.860Z,1.50
2022-09-02T02:23:12.279Z,1.70
2022-09-02T02:25:41.782Z,1.60
2022-09-02T02:28:08.740Z,1.73
2022-09-02T02:30:35.743Z,1.43
2022-09-02T02:33:02.647Z,1.50
2022-09-02T02:35:29.903Z,1.50
2022-09-02T02:37:57.971Z,1.60
2022-09-02T02:40:29.973Z,2.00
2022-09-02T02:42:59.867Z,1.70
2022-09-02T02:45:29.756Z,1.90
2022-09-02T02:47:59.057Z,1.90
2022-09-02T02:50:26.398Z,2.13
2022-09-02T02:52:56.835Z,1.80
2022-09-02T02:55:27.280Z,1.70
2022-09-02T02:57:54.524Z,1.80
2022-09-02T03:00:26.249Z,1.63
2022-09-02T03:03:07.075Z,1.80
2022-09-02T03:05:35.836Z,1.90
2022-09-02T03:08:03.537Z,2.60
2022-09-02T03:10:32.731Z,1.90
2022-09-02T03:13:09.527Z,1.80
2022-09-02T03:15:38.419Z,1.60
2022-09-02T03:18:09.096Z,1.70
2022-09-02T03:20:36.357Z,2.10
2022-09-02T03:23:04.728Z,1.80
2022-09-02T03:25:36.121Z,2.07
2022-09-02T03:28:03.840Z,2.27
2022-09-02T03:30:35.796Z,1.97
2022-09-02T03:33:05.828Z,2.23
2022-09-02T03:35:38.617Z,2.40
2022-09-02T03:38:09.192Z,2.23
2022-09-02T03:40:40.224Z,1.87
2022-09-02T03:43:07.229Z,2.40
2022-09-02T03:45:34.195Z,2.43
2022-09-02T03:48:01.142Z,2.37
2022-09-02T03:50:36.582Z,2.20
2022-09-02T03:53:04.751Z,2.67
2022-09-02T03:55:32.325Z,2.00
2022-09-02T03:57:59.769Z,2.00
2022-09-02T04:00:31.982Z,1.87
2022-09-02T04:03:01.502Z,2.47
2022-09-02T04:05:29.125Z,1.87
2022-09-02T04:07:59.141Z,2.03
2022-09-02T04:10:26.243Z,2.60
2022-09-02T04:12:53.794Z,2.47
2022-09-02T04:15:21.278Z,2.37
2022-09-02T04:17:48.206Z,2.10
2022-09-02T04:20:18.065Z,2.33
2022-09-02T04:22:45.060Z,2.47
2022-09-02T04:25:15.349Z,3.50
2022-09-02T04:27:42.264Z,2.83
2022-09-02T04:30:17.090Z,3.60
2022-09-02T04:32:47.088Z,2.60
2022-09-02T04:35:14.015Z,2.50
2022-09-02T04:37:40.885Z,1.80
2022-09-02T04:40:08.868Z,2.43
2022-09-02T04:42:35.974Z,3.17
2022-09-02T04:45:03.168Z,2.30
2022-09-02T04:47:32.130Z,2.70
2022-09-02T04:50:03.865Z,2.33
2022-09-02T04:52:30.763Z,2.20
2022-09-02T04:54:57.797Z,2.50
2022-09-02T04:57:26.761Z,2.00
2022-09-02T04:59:54.015Z,2.90
2022-09-02T05:02:21.040Z,2.50
2022-09-02T05:04:48.085Z,2.23
2022-09-02T05:07:17.237Z,3.00
2022-09-02T05:09:46.390Z,2.60
2022-09-02T05:12:18.190Z,2.23
2022-09-02T05:14:45.173Z,2.73
2022-09-02T05:17:12.269Z,2.57
2022-09-02T05:19:41.513Z,2.43
2022-09-02T05:22:08.530Z,2.17
2022-09-02T05:24:37.573Z,2.13
2022-09-02T05:27:04.636Z,2.90
2022-09-02T05:29:31.607Z,2.60
2022-09-02T05:31:58.704Z,2.60
2022-09-02T05:34:25.764Z,2.70
2022-09-02T05:36:52.613Z,2.90
2022-09-02T05:39:19.667Z,3.77
2022-09-02T05:41:47.024Z,2.67
2022-09-02T05:44:14.036Z,2.60
2022-09-02T05:46:42.123Z,2.43
2022-09-02T05:49:17.316Z,2.30
2022-09-02T05:51:52.979Z,2.30
2022-09-02T05:54:38.402Z,2.70
2022-09-02T05:57:15.887Z,2.73
2022-09-02T05:59:44.165Z,2.40
2022-09-02T06:02:13.672Z,2.60
2022-09-02T06:04:47.070Z,4.30
2022-09-02T06:07:15.750Z,7.03
2022-09-02T06:09:44.866Z,5.73
2022-09-02T06:12:13.268Z,6.80
2022-09-02T06:14:41.523Z,4.50
2022-09-02T06:17:13.419Z,4.50
2022-09-02T06:19:40.611Z,4.40
2022-09-02T06:22:10.027Z,4.30
2022-09-02T06:24:38.517Z,4.03
2022-09-02T06:27:07.230Z,4.50
2022-09-02T06:29:34.917Z,3.97
2022-09-02T06:32:02.270Z,4.07
2022-09-02T06:34:31.367Z,3.00
2022-09-02T06:36:59.031Z,2.83
2022-09-02T06:39:28.849Z,2.83
2022-09-02T06:41:55.979Z,2.60
2022-09-02T06:44:25.561Z,3.67
2022-09-02T06:46:59.710Z,2.93
2022-09-02T06:49:28.465Z,3.70
2022-09-02T06:51:56.884Z,3.47
2022-09-02T06:54:25.010Z,2.23
2022-09-02T06:56:53.284Z,1.77
2022-09-02T06:59:21.551Z,2.40
2022-09-02T07:01:49.705Z,2.20
2022-09-02T07:04:36.192Z,2.20
2022-09-02T07:07:06.849Z,2.00
2022-09-02T07:09:38.438Z,2.50
2022-09-02T07:12:05.999Z,2.23
2022-09-02T07:14:41.763Z,1.90
2022-09-02T07:17:12.072Z,2.47
2022-09-02T07:19:39.232Z,2.40
2022-09-02T07:22:07.151Z,1.40
2022-09-02T07:24:34.301Z,2.00
2022-09-02T07:27:01.656Z,2.17
2022-09-02T07:29:31.102Z,2.10
2022-09-02T07:31:58.804Z,1.70
2022-09-02T07:34:31.948Z,1.53
2022-09-02T07:37:05.138Z,1.10
2022-09-02T07:39:35.658Z,1.60
2022-09-02T07:42:03.197Z,1.80
2022-09-02T07:44:30.134Z,1.60
2022-09-02T07:46:59.259Z,1.30
2022-09-02T07:49:27.018Z,1.10
2022-09-02T07:51:56.990Z,1.43
2022-09-02T07:54:26.807Z,1.43
2022-09-02T07:56:54.391Z,1.70
2022-09-02T07:59:21.836Z,1.20
2022-09-02T08:01:49.513Z,1.40
2022-09-02T08:04:21.251Z,1.87
2022-09-02T08:06:52.154Z,1.60
2022-09-02T08:09:19.847Z,1.50
2022-09-02T08:11:49.985Z,1.30
2022-09-02T08:14:26.168Z,1.30
2022-09-02T08:16:54.221Z,1.30
2022-09-02T08:19:22.682Z,1.30
2022-09-02T08:21:50.173Z,1.30
2022-09-02T08:24:17.105Z,1.53
2022-09-02T08:26:47.057Z,1.60
2022-09-02T08:29:16.473Z,1.43
2022-09-02T08:31:43.438Z,1.27
2022-09-02T08:34:10.407Z,1.30
2022-09-02T08:36:48.973Z,1.40
2022-09-02T08:39:25.940Z,1.03
2022-09-02T08:42:08.312Z,1.30
2022-09-02T08:44:38.478Z,1.03
2022-09-02T08:47:13.027Z,1.17
2022-09-02T08:49:48.627Z,1.10
2022-09-02T08:52:43.150Z,1.03
2022-09-02T08:55:29.334Z,1.13
2022-09-02T08:57:57.261Z,1.03
2022-09-02T09:00:24.307Z,1.03
2022-09-02T09:03:33.777Z,1.10
2022-09-02T09:06:20.160Z,1.17
2022-09-02T09:09:17.434Z,1.77
2022-09-02T09:11:56.125Z,1.20
2022-09-02T09:14:41.632Z,1.00
2022-09-02T09:17:41.229Z,0.97
2022-09-02T09:20:33.246Z,1.17
2022-09-02T09:23:34.304Z,1.40
2022-09-02T09:26:17.962Z,1.20
2022-09-02T09:28:51.885Z,1.00
2022-09-02T09:31:22.815Z,1.20
2022-09-02T09:34:20.916Z,1.27
2022-09-02T09:36:54.011Z,1.20
2022-09-02T09:39:32.392Z,1.10
2022-09-02T09:42:09.229Z,0.87
2022-09-02T09:44:48.287Z,1.37
2022-09-02T09:47:19.398Z,1.00
2022-09-02T09:49:55.699Z,1.10
2022-09-02T09:52:30.818Z,1.27
2022-09-02T09:55:20.981Z,1.30
2022-09-02T09:58:11.341Z,1.27
2022-09-02T10:00:42.008Z,1.23
2022-09-02T10:03:21.350Z,2.03
2022-09-02T10:05:49.873Z,1.50
2022-09-02T10:08:16.640Z,1.37
2022-09-02T10:11:08.489Z,1.47
2022-09-02T10:13:38.068Z,1.30
2022-09-02T10:16:29.820Z,1.40
2022-09-02T10:19:01.646Z,1.20
2022-09-02T10:21:56.811Z,1.10
2022-09-02T10:24:51.339Z,1.00
2022-09-02T10:27:50.032Z,1.00
2022-09-02T10:30:34.321Z,1.10
2022-09-02T10:33:47.843Z,1.00
2022-09-02T10:37:02.190Z,1.10
2022-09-02T10:39:50.343Z,1.07
2022-09-02T10:42:38.828Z,0.90
2022-09-02T10:45:44.007Z,1.10
2022-09-02T10:49:04.665Z,0.90
2022-09-02T10:52:01.662Z,1.13
2022-09-02T10:54:47.175Z,1.20
2022-09-02T10:57:30.205Z,1.30
2022-09-02T11:00:09.748Z,1.17
2022-09-02T11:03:22.014Z,1.00
2022-09-02T11:06:24.482Z,1.20
2022-09-02T11:09:05.903Z,1.20
2022-09-02T11:11:44.379Z,1.37
2022-09-02T11:14:52.527Z,2.77
2022-09-02T11:17:53.064Z,1.37
2022-09-02T11:21:08.154Z,1.13
2022-09-02T11:23:52.397Z,1.20
2022-09-02T11:26:32.485Z,1.50
2022-09-02T11:29:16.289Z,1.20
2022-09-02T11:32:18.008Z,1.60
2022-09-02T11:34:51.445Z,1.20
2022-09-02T11:37:49.417Z,1.30
2022-09-02T11:40:36.437Z,1.13
2022-09-02T11:43:22.576Z,1.13
2022-09-02T11:46:34.109Z,1.13
2022-09-02T11:49:18.502Z,1.10
2022-09-02T11:52:34.834Z,1.00
2022-09-02T11:55:16.610Z,1.47
2022-09-02T11:57:52.361Z,1.00
2022-09-02T12:00:34.692Z,1.20
2022-09-02T12:03:16.758Z,1.13
2022-09-02T12:06:11.366Z,1.20
2022-09-02T12:08:42.920Z,1.13
2022-09-02T12:11:39.831Z,1.00
2022-09-02T12:14:11.785Z,1.40
2022-09-02T12:16:45.235Z,1.13
2022-09-02T12:19:13.220Z,1.70
2022-09-02T12:22:17.473Z,1.20
2022-09-02T12:25:02.983Z,1.60
2022-09-02T12:27:40.927Z,1.47
2022-09-02T12:30:12.621Z,1.00
2022-09-02T12:32:51.392Z,1.20
2022-09-02T12:35:58.315Z,1.07
2022-09-02T12:38:41.538Z,1.40
2022-09-02T12:41:27.638Z,1.57
2022-09-02T12:44:18.462Z,1.20
2022-09-02T12:47:24.119Z,1.47
2022-09-02T12:50:08.243Z,1.33
2022-09-02T12:52:39.324Z,1.47
2022-09-02T12:55:25.310Z,1.40
2022-09-02T12:58:08.309Z,1.30
2022-09-02T13:01:06.900Z,1.20
2022-09-02T13:04:26.885Z,1.33
2022-09-02T13:07:36.958Z,1.10
2022-09-02T13:10:40.259Z,1.40
2022-09-02T13:13:34.892Z,1.50
2022-09-02T13:16:18.605Z,1.40
2022-09-02T13:19:05.626Z,1.40
2022-09-02T13:22:08.698Z,1.70
2022-09-02T13:25:08.760Z,1.80
2022-09-02T13:28:10.312Z,1.33
2022-09-02T13:31:15.520Z,1.53
2022-09-02T13:33:43.298Z,1.33
2022-09-02T13:36:12.817Z,2.10
2022-09-02T13:38:39.820Z,2.37
2022-09-02T13:41:06.756Z,1.80
2022-09-02T13:43:36.202Z,1.40
2022-09-02T13:46:05.306Z,1.87
2022-09-02T13:48:37.728Z,1.53
2022-09-02T13:51:14.055Z,1.20
2022-09-02T13:54:20.762Z,1.60
2022-09-02T13:56:35.009Z,2.00
2022-09-02T13:59:01.993Z,1.10
2022-09-02T14:01:34.730Z,1.30
2022-09-02T14:04:11.402Z,1.30
2022-09-02T14:06:42.676Z,1.50
2022-09-02T14:09:21.172Z,1.33
2022-09-02T14:11:48.909Z,1.50
2022-09-02T14:14:20.105Z,1.27
2022-09-02T14:16:47.117Z,1.73
2022-09-02T14:19:17.031Z,1.10
2022-09-02T14:21:49.404Z,1.07
2022-09-02T14:24:24.553Z,1.30
2022-09-02T14:26:57.486Z,1.43
2022-09-02T14:29:25.547Z,1.27
2022-09-02T14:32:23.088Z,1.13
2022-09-02T14:35:09.584Z,1.33
2022-09-02T14:37:55.661Z,1.20
2022-09-02T14:40:40.798Z,1.13
2022-09-02T14:43:15.997Z,0.93
2022-09-02T14:45:49.285Z,1.03
2022-09-02T14:48:38.901Z,1.47
2022-09-02T14:51:07.932Z,1.50
2022-09-02T14:53:45.979Z,1.40
2022-09-02T14:56:12.887Z,1.57
2022-09-02T14:58:39.801Z,3.00
2022-09-02T15:01:08.959Z,1.73
2022-09-02T15:03:38.706Z,1.20
2022-09-02T15:06:05.921Z,1.43
2022-09-02T15:08:33.027Z,1.67
2022-09-02T15:11:03.699Z,1.33
2022-09-02T15:13:34.967Z,1.60
2022-09-02T15:16:04.702Z,1.50
2022-09-02T15:18:31.713Z,1.30
2022-09-02T15:21:01.676Z,1.37
2022-09-02T15:23:32.553Z,1.40
2022-09-02T15:26:01.938Z,1.60
2022-09-02T15:28:31.051Z,1.43
2022-09-02T15:31:02.131Z,1.40
2022-09-02T15:33:29.517Z,1.40
2022-09-02T15:36:08.958Z,1.53
2022-09-02T15:38:37.797Z,1.83
2022-09-02T15:41:24.038Z,1.27
2022-09-02T15:43:56.555Z,1.53
2022-09-02T15:46:24.931Z,1.33
2022-09-02T15:48:57.860Z,1.20
2022-09-02T15:51:30.723Z,1.83
2022-09-02T15:54:02.810Z,0.90
2022-09-02T15:56:34.732Z,1.70
2022-09-02T15:59:09.432Z,2.10
2022-09-02T16:01:46.977Z,1.43
2022-09-02T16:04:14.931Z,2.33
2022-09-02T16:06:45.201Z,2.03
2022-09-02T16:09:16.991Z,1.40
2022-09-02T16:11:49.729Z,1.23
2022-09-02T16:14:20.190Z,1.40
2022-09-02T16:16:49.749Z,1.67
2022-09-02T16:19:28.727Z,1.43
2022-09-02T16:21:57.711Z,1.70
2022-09-02T16:24:27.568Z,1.17
2022-09-02T16:26:54.424Z,1.30
2022-09-02T16:29:21.382Z,1.40
2022-09-02T16:32:02.220Z,1.43
2022-09-02T16:34:37.690Z,1.77
2022-09-02T16:37:06.652Z,1.20
2022-09-02T16:39:33.800Z,1.20
2022-09-02T16:42:04.215Z,1.60
2022-09-02T16:44:34.227Z,1.23
2022-09-02T16:47:06.262Z,1.60
2022-09-02T16:49:35.626Z,1.70
2022-09-02T16:52:04.756Z,1.73
2022-09-02T16:54:38.699Z,1.83
2022-09-02T16:57:07.651Z,1.80
2022-09-02T16:59:34.594Z,1.40
2022-09-02T17:02:04.207Z,1.10
2022-09-02T17:04:31.082Z,1.30
2022-09-02T17:07:00.227Z,2.00
2022-09-02T17:09:27.186Z,1.37
2022-09-02T17:11:58.808Z,1.10
2022-09-02T17:14:25.685Z,1.60
2022-09-02T17:16:55.362Z,1.50
2022-09-02T17:19:22.845Z,1.57
2022-09-02T17:21:54.625Z,1.23
2022-09-02T17:24:25.196Z,1.40
2022-09-02T17:26:56.088Z,1.30
2022-09-02T17:29:48.841Z,1.50
2022-09-02T17:32:17.110Z,1.17
2022-09-02T17:34:44.132Z,1.30
2022-09-02T17:37:11.113Z,1.10
2022-09-02T17:39:40.188Z,1.30
2022-09-02T17:42:09.272Z,1.50
2022-09-02T17:44:40.483Z,1.20
2022-09-02T17:47:09.000Z,1.27
2022-09-02T17:49:38.057Z,1.37
2022-09-02T17:52:07.543Z,1.47
2022-09-02T17:54:42.660Z,1.20
2022-09-02T17:57:28.316Z,1.23
2022-09-02T18:00:26.595Z,1.90
2022-09-02T18:02:55.501Z,1.43
2022-09-02T18:05:50.874Z,1.90
2022-09-02T18:08:34.414Z,1.10
2022-09-02T18:11:05.112Z,1.50
2022-09-02T18:13:48.904Z,1.60
2022-09-02T18:16:51.448Z,1.60
2022-09-02T18:19:45.913Z,1.40
2022-09-02T18:22:47.021Z,1.47
2022-09-02T18:26:00.486Z,1.30
2022-09-02T18:28:57.742Z,1.57
2022-09-02T18:32:06.030Z,1.83
2022-09-02T18:35:03.361Z,1.80
2022-09-02T18:37:55.782Z,1.63
2022-09-02T18:41:00.390Z,1.70
2022-09-02T18:43:51.944Z,1.77
2022-09-02T18:46:21.268Z,1.90
2022-09-02T18:48:53.530Z,1.80
2022-09-02T18:51:44.102Z,2.13
2022-09-02T18:54:31.150Z,2.30
2022-09-02T18:57:02.223Z,2.10
2022-09-02T19:00:02.497Z,2.40
2022-09-02T19:03:01.234Z,2.50
2022-09-02T19:05:32.707Z,2.13
2022-09-02T19:08:28.199Z,2.40
2022-09-02T19:11:18.371Z,2.50
2022-09-02T19:14:03.316Z,2.60
2022-09-02T19:16:34.201Z,2.50
2022-09-02T19:19:02.057Z,3.17
2022-09-02T19:21:55.151Z,2.50
2022-09-02T19:24:32.547Z,2.60
2022-09-02T19:27:07.106Z,2.57
2022-09-02T19:29:44.480Z,2.60
2022-09-02T19:32:15.451Z,2.93
2022-09-02T19:34:45.452Z,2.00
2022-09-02T19:37:18.037Z,2.20
2022-09-02T19:39:45.358Z,2.00
2022-09-02T19:42:13.054Z,2.80
2022-09-02T19:44:40.983Z,2.30
2022-09-02T19:50:08.627Z,2.40
2022-09-02T19:52:45.392Z,2.10
2022-09-02T19:55:16.541Z,1.90
2022-09-02T19:58:02.607Z,2.10
2022-09-02T20:00:33.346Z,1.80
2022-09-02T20:03:04.076Z,1.73
2022-09-02T20:05:40.542Z,1.40
2022-09-02T20:08:12.249Z,1.47
2022-09-02T20:10:40.065Z,1.33
2022-09-02T20:13:12.344Z,1.40
2022-09-02T20:15:40.294Z,1.30
2022-09-02T20:18:16.508Z,1.37
2022-09-02T20:20:49.350Z,1.40
2022-09-02T20:23:22.530Z,1.90
2022-09-02T20:26:24.219Z,1.50
2022-09-02T20:29:23.292Z,1.20
2022-09-02T20:32:28.709Z,1.60
2022-09-02T20:35:03.341Z,1.40
2022-09-02T20:38:27.147Z,1.27
2022-09-02T20:41:17.631Z,1.37
2022-09-02T20:44:20.223Z,1.63
2022-09-02T20:47:25.615Z,1.30
2022-09-02T20:50:44.054Z,1.60
2022-09-02T20:53:41.646Z,1.43
2022-09-02T20:56:46.722Z,1.60
2022-09-02T20:59:31.157Z,1.63
2022-09-02T21:02:02.683Z,1.47
2022-09-02T21:04:42.956Z,1.40
2022-09-02T21:07:45.430Z,1.37
2022-09-02T21:10:29.698Z,1.80
2022-09-02T21:13:22.113Z,1.60
2022-09-02T21:16:00.234Z,1.73
2022-09-02T21:18:40.660Z,1.87
2022-09-02T21:21:31.759Z,2.00
2022-09-02T21:24:03.944Z,1.70
2022-09-02T21:26:49.084Z,1.83
2022-09-02T21:29:19.072Z,2.47
2022-09-02T21:32:12.058Z,1.77
2022-09-02T21:35:06.245Z,1.53
2022-09-02T21:37:36.788Z,1.50
2022-09-02T21:40:17.034Z,1.70
2022-09-02T21:43:26.893Z,2.10
2022-09-02T21:46:43.619Z,2.13
2022-09-02T21:49:58.378Z,1.90
2022-09-02T21:52:47.548Z,2.07
2022-09-02T21:55:29.345Z,1.57
2022-09-02T21:58:26.370Z,2.00
2022-09-02T22:01:09.516Z,1.90
2022-09-02T22:03:41.529Z,1.90
2022-09-02T22:06:35.343Z,1.60
2022-09-02T22:09:25.458Z,2.20
2022-09-02T22:12:14.712Z,1.33
2022-09-02T22:14:59.121Z,1.90
2022-09-02T22:17:37.756Z,1.60
2022-09-02T22:20:07.481Z,1.63
2022-09-02T22:22:45.195Z,1.50
2022-09-02T22:25:16.646Z,1.60
2022-09-02T22:28:12.417Z,1.67
2022-09-02T22:30:49.929Z,1.43
2022-09-02T22:33:28.077Z,1.13
2022-09-02T22:36:38.642Z,1.50
2022-09-02T22:39:07.855Z,1.30
2022-09-02T22:41:34.893Z,1.57
2022-09-02T22:44:20.909Z,1.70
2022-09-02T22:47:27.966Z,1.60
2022-09-02T22:50:18.499Z,1.60
2022-09-02T22:52:45.815Z,1.90
2022-09-02T22:55:39.652Z,2.30
2022-09-02T22:58:55.999Z,2.13
2022-09-02T23:01:53.552Z,1.80
2022-09-02T23:04:45.064Z,2.33
2022-09-02T23:07:13.664Z,1.70
2022-09-02T23:09:41.040Z,1.70
2022-09-02T23:12:10.758Z,1.60
2022-09-02T23:14:47.494Z,1.70
2022-09-02T23:17:40.396Z,1.97
2022-09-02T23:20:28.416Z,1.47
2022-09-02T23:23:36.683Z,1.87
2022-09-02T23:26:33.253Z,1.47
2022-09-02T23:29:09.079Z,1.73
2022-09-02T23:32:00.352Z,1.93
2022-09-02T23:35:11.335Z,1.90
2022-09-02T23:38:00.250Z,2.27
2022-09-02T23:40:30.903Z,2.03
2022-09-02T23:42:59.958Z,1.70
2022-09-02T23:45:35.098Z,1.70
2022-09-02T23:48:44.229Z,1.70
2022-09-02T23:51:52.239Z,1.60
2022-09-02T23:54:50.522Z,1.33
2022-09-02T23:57:36.813Z,1.60
